Hamptonville, North Carolina
Current Conditions -  °F | °C
As of 5:35 PM on Friday 31 Oct 2014 (Local Time) from KUKF Reporting Station
Moderate Rain Moderate Rain  
Wind Chill: 50°   Ceiling: 3500
Heat Index: 50°   Visibility: 10mi
Dew Point: 45°   Wind: 5mph
Humidity: 82%   Direction: 310°NW
Pressure: 29.87"   Gusts: NA
Location:  36.1°N, 80.76°W
Report Text: KUKF 312135Z AUTO 31004KT 10SM RA BKN035 OVC045 10/07 A2987 RMK AO2
Loading
Personal Weather Stations






























Interactive Weather Map
Tropical Storm Tracking
New forecast layout! Learn more

10-Day Weather Forecast

Advertisements
Track Severe Weather on mobile